sensor_id;sensor_type;location;lat;lon;timestamp;temperature;humidity
53599;DHT22;39485;45.702;11.364;2022-12-07T00:01:22;3.60;99.90
53599;DHT22;39485;45.702;11.364;2022-12-07T00:03:49;3.60;99.90
53599;DHT22;39485;45.702;11.364;2022-12-07T00:06:17;3.60;99.90
53599;DHT22;39485;45.702;11.364;2022-12-07T00:08:43;3.60;99.90
53599;DHT22;39485;45.702;11.364;2022-12-07T00:11:21;3.50;99.90
53599;DHT22;39485;45.702;11.364;2022-12-07T00:13:51;3.50;99.90
53599;DHT22;39485;45.702;11.364;2022-12-07T00:16:18;3.50;99.90
53599;DHT22;39485;45.702;11.364;2022-12-07T00:18:45;3.50;99.90
53599;DHT22;39485;45.702;11.364;2022-12-07T00:21:13;3.50;99.90
53599;DHT22;39485;45.702;11.364;2022-12-07T00:23:40;3.50;99.90
53599;DHT22;39485;45.702;11.364;2022-12-07T00:26:16;3.50;99.90
53599;DHT22;39485;45.702;11.364;2022-12-07T00:28:49;3.50;99.90
53599;DHT22;39485;45.702;11.364;2022-12-07T00:31:17;3.50;99.90
53599;DHT22;39485;45.702;11.364;2022-12-07T00:33:43;3.50;99.90
53599;DHT22;39485;45.702;11.364;2022-12-07T00:36:11;3.50;99.90
53599;DHT22;39485;45.702;11.364;2022-12-07T00:38:39;3.50;99.90
53599;DHT22;39485;45.702;11.364;2022-12-07T00:41:07;3.50;99.90
53599;DHT22;39485;45.702;11.364;2022-12-07T00:43:33;3.50;99.90
53599;DHT22;39485;45.702;11.364;2022-12-07T00:45:59;3.40;99.90
53599;DHT22;39485;45.702;11.364;2022-12-07T00:48:25;3.50;99.90
53599;DHT22;39485;45.702;11.364;2022-12-07T00:50:51;3.50;99.90
53599;DHT22;39485;45.702;11.364;2022-12-07T00:53:17;3.50;99.90
53599;DHT22;39485;45.702;11.364;2022-12-07T00:55:43;3.50;99.90
53599;DHT22;39485;45.702;11.364;2022-12-07T00:58:10;3.50;99.90
53599;DHT22;39485;45.702;11.364;2022-12-07T01:00:37;3.50;99.90
53599;DHT22;39485;45.702;11.364;2022-12-07T01:03:04;3.50;99.90
53599;DHT22;39485;45.702;11.364;2022-12-07T01:05:30;3.50;99.90
53599;DHT22;39485;45.702;11.364;2022-12-07T01:07:55;3.50;99.90
53599;DHT22;39485;45.702;11.364;2022-12-07T01:10:21;3.50;99.90
53599;DHT22;39485;45.702;11.364;2022-12-07T01:12:47;3.50;99.90
53599;DHT22;39485;45.702;11.364;2022-12-07T01:15:12;3.60;99.90
53599;DHT22;39485;45.702;11.364;2022-12-07T01:17:38;3.60;99.90
53599;DHT22;39485;45.702;11.364;2022-12-07T01:20:06;3.60;99.90
53599;DHT22;39485;45.702;11.364;2022-12-07T01:22:37;3.50;99.90
53599;DHT22;39485;45.702;11.364;2022-12-07T01:25:04;3.60;99.90
53599;DHT22;39485;45.702;11.364;2022-12-07T01:27:30;3.50;99.90
53599;DHT22;39485;45.702;11.364;2022-12-07T01:29:56;3.50;99.90
53599;DHT22;39485;45.702;11.364;2022-12-07T01:32:21;3.60;99.90
53599;DHT22;39485;45.702;11.364;2022-12-07T01:34:49;3.50;99.90
53599;DHT22;39485;45.702;11.364;2022-12-07T01:37:15;3.50;99.90
53599;DHT22;39485;45.702;11.364;2022-12-07T01:39:41;3.50;99.90
53599;DHT22;39485;45.702;11.364;2022-12-07T01:42:11;3.50;99.90
53599;DHT22;39485;45.702;11.364;2022-12-07T01:47:41;3.50;99.90
53599;DHT22;39485;45.702;11.364;2022-12-07T01:50:08;3.50;99.90
53599;DHT22;39485;45.702;11.364;2022-12-07T01:52:35;3.50;99.90
53599;DHT22;39485;45.702;11.364;2022-12-07T01:55:08;3.50;99.90
53599;DHT22;39485;45.702;11.364;2022-12-07T01:57:37;3.40;99.90
53599;DHT22;39485;45.702;11.364;2022-12-07T02:00:06;3.40;99.90
53599;DHT22;39485;45.702;11.364;2022-12-07T02:02:37;3.30;99.90
53599;DHT22;39485;45.702;11.364;2022-12-07T02:05:05;3.20;99.90
53599;DHT22;39485;45.702;11.364;2022-12-07T02:07:33;3.10;99.90
53599;DHT22;39485;45.702;11.364;2022-12-07T02:10:20;3.10;99.90
53599;DHT22;39485;45.702;11.364;2022-12-07T02:12:50;3.00;99.90
53599;DHT22;39485;45.702;11.364;2022-12-07T02:15:19;3.00;99.90
53599;DHT22;39485;45.702;11.364;2022-12-07T02:18:05;3.00;99.90
53599;DHT22;39485;45.702;11.364;2022-12-07T02:35:58;2.90;99.90
53599;DHT22;39485;45.702;11.364;2022-12-07T02:38:34;2.90;99.90
53599;DHT22;39485;45.702;11.364;2022-12-07T02:41:14;2.90;99.90
53599;DHT22;39485;45.702;11.364;2022-12-07T02:43:44;2.90;99.90
53599;DHT22;39485;45.702;11.364;2022-12-07T02:46:14;2.90;99.90
53599;DHT22;39485;45.702;11.364;2022-12-07T02:48:43;2.80;99.90
53599;DHT22;39485;45.702;11.364;2022-12-07T02:51:09;2.80;99.90
53599;DHT22;39485;45.702;11.364;2022-12-07T02:53:40;2.80;99.90
53599;DHT22;39485;45.702;11.364;2022-12-07T03:01:29;2.70;99.90
53599;DHT22;39485;45.702;11.364;2022-12-07T03:12:37;2.50;99.90
53599;DHT22;39485;45.702;11.364;2022-12-07T03:15:25;2.40;99.90
53599;DHT22;39485;45.702;11.364;2022-12-07T03:17:54;2.40;99.90
53599;DHT22;39485;45.702;11.364;2022-12-07T03:20:23;2.40;99.90
53599;DHT22;39485;45.702;11.364;2022-12-07T03:22:51;2.40;99.90
53599;DHT22;39485;45.702;11.364;2022-12-07T03:25:18;2.40;99.90
53599;DHT22;39485;45.702;11.364;2022-12-07T03:27:45;2.40;99.90
53599;DHT22;39485;45.702;11.364;2022-12-07T03:30:17;2.30;99.90
53599;DHT22;39485;45.702;11.364;2022-12-07T03:33:05;2.40;99.90
53599;DHT22;39485;45.702;11.364;2022-12-07T03:35:41;2.40;99.90
53599;DHT22;39485;45.702;11.364;2022-12-07T03:38:15;2.40;99.90
53599;DHT22;39485;45.702;11.364;2022-12-07T03:41:00;2.40;99.90
53599;DHT22;39485;45.702;11.364;2022-12-07T03:43:29;2.40;99.90
53599;DHT22;39485;45.702;11.364;2022-12-07T03:49:23;2.40;99.90
53599;DHT22;39485;45.702;11.364;2022-12-07T03:55:00;2.40;99.90
53599;DHT22;39485;45.702;11.364;2022-12-07T03:57:29;2.40;99.90
53599;DHT22;39485;45.702;11.364;2022-12-07T03:59:57;2.40;99.90
53599;DHT22;39485;45.702;11.364;2022-12-07T04:02:24;2.40;99.90
53599;DHT22;39485;45.702;11.364;2022-12-07T04:04:51;2.40;99.90
53599;DHT22;39485;45.702;11.364;2022-12-07T04:07:17;2.50;99.90
53599;DHT22;39485;45.702;11.364;2022-12-07T04:09:43;2.50;99.90
53599;DHT22;39485;45.702;11.364;2022-12-07T04:12:09;2.50;99.90
53599;DHT22;39485;45.702;11.364;2022-12-07T04:14:34;2.50;99.90
53599;DHT22;39485;45.702;11.364;2022-12-07T04:17:00;2.50;99.90
53599;DHT22;39485;45.702;11.364;2022-12-07T04:19:28;2.60;99.90
53599;DHT22;39485;45.702;11.364;2022-12-07T04:21:55;2.60;99.90
53599;DHT22;39485;45.702;11.364;2022-12-07T04:24:21;2.60;99.90
53599;DHT22;39485;45.702;11.364;2022-12-07T04:26:48;2.60;99.90
53599;DHT22;39485;45.702;11.364;2022-12-07T04:29:14;2.60;99.90
53599;DHT22;39485;45.702;11.364;2022-12-07T04:31:40;2.60;99.90
53599;DHT22;39485;45.702;11.364;2022-12-07T04:34:07;2.60;99.90
53599;DHT22;39485;45.702;11.364;2022-12-07T04:36:33;2.60;99.90
53599;DHT22;39485;45.702;11.364;2022-12-07T04:38:59;2.60;99.90
53599;DHT22;39485;45.702;11.364;2022-12-07T04:41:25;2.60;99.90
53599;DHT22;39485;45.702;11.364;2022-12-07T04:43:59;2.70;99.90
53599;DHT22;39485;45.702;11.364;2022-12-07T04:46:26;2.70;99.90
53599;DHT22;39485;45.702;11.364;2022-12-07T04:48:53;2.70;99.90
53599;DHT22;39485;45.702;11.364;2022-12-07T04:51:22;2.60;99.90
53599;DHT22;39485;45.702;11.364;2022-12-07T04:53:48;2.60;99.90
53599;DHT22;39485;45.702;11.364;2022-12-07T04:56:15;2.70;99.90
53599;DHT22;39485;45.702;11.364;2022-12-07T04:58:42;2.70;99.90
53599;DHT22;39485;45.702;11.364;2022-12-07T05:01:08;2.60;99.90
53599;DHT22;39485;45.702;11.364;2022-12-07T05:03:35;2.70;99.90
53599;DHT22;39485;45.702;11.364;2022-12-07T05:06:01;2.70;99.90
53599;DHT22;39485;45.702;11.364;2022-12-07T05:08:27;2.70;99.90
53599;DHT22;39485;45.702;11.364;2022-12-07T05:10:52;2.60;99.90
53599;DHT22;39485;45.702;11.364;2022-12-07T05:13:18;2.60;99.90
53599;DHT22;39485;45.702;11.364;2022-12-07T05:15:44;2.60;99.90
53599;DHT22;39485;45.702;11.364;2022-12-07T05:18:10;2.60;99.90
53599;DHT22;39485;45.702;11.364;2022-12-07T05:20:38;2.60;99.90
53599;DHT22;39485;45.702;11.364;2022-12-07T05:23:04;2.60;99.90
53599;DHT22;39485;45.702;11.364;2022-12-07T05:25:30;2.60;99.90
53599;DHT22;39485;45.702;11.364;2022-12-07T05:27:56;2.60;99.90
53599;DHT22;39485;45.702;11.364;2022-12-07T05:30:23;2.60;99.90
53599;DHT22;39485;45.702;11.364;2022-12-07T05:32:49;2.60;99.90
53599;DHT22;39485;45.702;11.364;2022-12-07T05:35:15;2.60;99.90
53599;DHT22;39485;45.702;11.364;2022-12-07T05:37:40;2.60;99.90
53599;DHT22;39485;45.702;11.364;2022-12-07T05:40:07;2.60;99.90
53599;DHT22;39485;45.702;11.364;2022-12-07T05:42:32;2.60;99.90
53599;DHT22;39485;45.702;11.364;2022-12-07T05:44:58;2.60;99.90
53599;DHT22;39485;45.702;11.364;2022-12-07T05:47:24;2.60;99.90
53599;DHT22;39485;45.702;11.364;2022-12-07T05:49:49;2.60;99.90
53599;DHT22;39485;45.702;11.364;2022-12-07T05:52:15;2.60;99.90
53599;DHT22;39485;45.702;11.364;2022-12-07T05:54:41;2.70;99.90
53599;DHT22;39485;45.702;11.364;2022-12-07T05:57:07;2.70;99.90
53599;DHT22;39485;45.702;11.364;2022-12-07T05:59:32;2.70;99.90
53599;DHT22;39485;45.702;11.364;2022-12-07T06:02:06;2.70;99.90
53599;DHT22;39485;45.702;11.364;2022-12-07T06:04:35;2.70;99.90
53599;DHT22;39485;45.702;11.364;2022-12-07T06:07:01;2.80;99.90
53599;DHT22;39485;45.702;11.364;2022-12-07T06:09:27;2.80;99.90
53599;DHT22;39485;45.702;11.364;2022-12-07T06:11:54;2.80;99.90
53599;DHT22;39485;45.702;11.364;2022-12-07T06:14:38;2.80;99.90
53599;DHT22;39485;45.702;11.364;2022-12-07T06:17:04;2.80;99.90
53599;DHT22;39485;45.702;11.364;2022-12-07T06:19:30;2.90;99.90
53599;DHT22;39485;45.702;11.364;2022-12-07T06:21:56;2.90;99.90
53599;DHT22;39485;45.702;11.364;2022-12-07T06:24:22;2.90;99.90
53599;DHT22;39485;45.702;11.364;2022-12-07T06:26:48;2.90;99.90
53599;DHT22;39485;45.702;11.364;2022-12-07T06:29:14;2.90;99.90
53599;DHT22;39485;45.702;11.364;2022-12-07T06:31:40;2.80;99.90
53599;DHT22;39485;45.702;11.364;2022-12-07T06:34:10;2.80;99.90
53599;DHT22;39485;45.702;11.364;2022-12-07T06:36:36;2.80;99.90
53599;DHT22;39485;45.702;11.364;2022-12-07T06:39:03;2.80;99.90
53599;DHT22;39485;45.702;11.364;2022-12-07T06:41:29;2.80;99.90
53599;DHT22;39485;45.702;11.364;2022-12-07T06:43:55;2.80;99.90
53599;DHT22;39485;45.702;11.364;2022-12-07T06:46:21;2.80;99.90
53599;DHT22;39485;45.702;11.364;2022-12-07T06:48:46;2.80;99.90
53599;DHT22;39485;45.702;11.364;2022-12-07T06:51:12;2.80;99.90
53599;DHT22;39485;45.702;11.364;2022-12-07T06:53:38;2.80;99.90
53599;DHT22;39485;45.702;11.364;2022-12-07T06:56:04;2.80;99.90
53599;DHT22;39485;45.702;11.364;2022-12-07T06:58:30;2.80;99.90
53599;DHT22;39485;45.702;11.364;2022-12-07T07:00:56;2.80;99.90
53599;DHT22;39485;45.702;11.364;2022-12-07T07:03:22;2.80;99.90
53599;DHT22;39485;45.702;11.364;2022-12-07T07:05:48;2.80;99.90
53599;DHT22;39485;45.702;11.364;2022-12-07T07:08:14;2.80;99.90
53599;DHT22;39485;45.702;11.364;2022-12-07T07:10:40;2.90;99.90
53599;DHT22;39485;45.702;11.364;2022-12-07T07:13:07;2.90;99.90
53599;DHT22;39485;45.702;11.364;2022-12-07T07:15:33;2.90;99.90
53599;DHT22;39485;45.702;11.364;2022-12-07T07:18:00;2.90;99.90
53599;DHT22;39485;45.702;11.364;2022-12-07T07:20:26;3.00;99.90
53599;DHT22;39485;45.702;11.364;2022-12-07T07:22:54;3.00;99.90
53599;DHT22;39485;45.702;11.364;2022-12-07T07:25:20;3.00;99.90
53599;DHT22;39485;45.702;11.364;2022-12-07T07:27:45;3.00;99.90
53599;DHT22;39485;45.702;11.364;2022-12-07T07:30:11;3.10;99.90
53599;DHT22;39485;45.702;11.364;2022-12-07T07:32:37;3.10;99.90
53599;DHT22;39485;45.702;11.364;2022-12-07T07:35:03;3.10;99.90
53599;DHT22;39485;45.702;11.364;2022-12-07T07:37:29;3.10;99.90
53599;DHT22;39485;45.702;11.364;2022-12-07T07:39:54;3.10;99.90
53599;DHT22;39485;45.702;11.364;2022-12-07T07:42:20;3.20;99.90
53599;DHT22;39485;45.702;11.364;2022-12-07T07:44:46;3.20;99.90
53599;DHT22;39485;45.702;11.364;2022-12-07T07:47:11;3.30;99.90
53599;DHT22;39485;45.702;11.364;2022-12-07T07:49:37;3.30;99.90
53599;DHT22;39485;45.702;11.364;2022-12-07T07:52:04;3.40;99.90
53599;DHT22;39485;45.702;11.364;2022-12-07T07:54:30;3.40;99.90
53599;DHT22;39485;45.702;11.364;2022-12-07T07:56:56;3.50;99.90
53599;DHT22;39485;45.702;11.364;2022-12-07T07:59:21;3.60;99.90
53599;DHT22;39485;45.702;11.364;2022-12-07T08:01:47;3.60;99.90
53599;DHT22;39485;45.702;11.364;2022-12-07T08:04:13;3.70;99.90
53599;DHT22;39485;45.702;11.364;2022-12-07T08:06:39;3.70;99.90
53599;DHT22;39485;45.702;11.364;2022-12-07T08:09:04;3.80;99.90
53599;DHT22;39485;45.702;11.364;2022-12-07T08:11:31;3.90;99.90
53599;DHT22;39485;45.702;11.364;2022-12-07T08:13:57;3.90;99.90
53599;DHT22;39485;45.702;11.364;2022-12-07T08:16:23;4.00;99.90
53599;DHT22;39485;45.702;11.364;2022-12-07T08:18:48;4.00;99.90
53599;DHT22;39485;45.702;11.364;2022-12-07T08:21:15;4.10;99.90
53599;DHT22;39485;45.702;11.364;2022-12-07T08:23:41;4.20;99.90
53599;DHT22;39485;45.702;11.364;2022-12-07T08:26:10;4.30;99.90
53599;DHT22;39485;45.702;11.364;2022-12-07T08:28:36;4.30;99.90
53599;DHT22;39485;45.702;11.364;2022-12-07T08:31:08;4.40;99.90
53599;DHT22;39485;45.702;11.364;2022-12-07T08:33:34;4.40;99.90
53599;DHT22;39485;45.702;11.364;2022-12-07T08:36:05;4.50;99.90
53599;DHT22;39485;45.702;11.364;2022-12-07T08:38:31;4.50;99.90
53599;DHT22;39485;45.702;11.364;2022-12-07T08:40:58;4.60;99.90
53599;DHT22;39485;45.702;11.364;2022-12-07T08:43:24;4.70;99.90
53599;DHT22;39485;45.702;11.364;2022-12-07T08:46:06;4.70;99.90
53599;DHT22;39485;45.702;11.364;2022-12-07T08:48:35;4.80;99.90
53599;DHT22;39485;45.702;11.364;2022-12-07T08:51:02;4.90;99.90
53599;DHT22;39485;45.702;11.364;2022-12-07T08:53:28;4.90;99.90
53599;DHT22;39485;45.702;11.364;2022-12-07T08:55:56;5.00;99.90
53599;DHT22;39485;45.702;11.364;2022-12-07T08:58:22;5.00;99.90
53599;DHT22;39485;45.702;11.364;2022-12-07T09:00:48;5.10;99.90
53599;DHT22;39485;45.702;11.364;2022-12-07T09:03:13;5.10;99.90
53599;DHT22;39485;45.702;11.364;2022-12-07T09:05:39;5.20;99.90
53599;DHT22;39485;45.702;11.364;2022-12-07T09:08:05;5.30;99.90
53599;DHT22;39485;45.702;11.364;2022-12-07T09:10:32;5.30;99.90
53599;DHT22;39485;45.702;11.364;2022-12-07T09:12:57;5.40;99.90
53599;DHT22;39485;45.702;11.364;2022-12-07T09:15:29;5.40;99.90
53599;DHT22;39485;45.702;11.364;2022-12-07T09:17:55;5.40;99.90
53599;DHT22;39485;45.702;11.364;2022-12-07T09:20:21;5.50;99.90
53599;DHT22;39485;45.702;11.364;2022-12-07T09:22:47;5.50;99.90
53599;DHT22;39485;45.702;11.364;2022-12-07T09:25:13;5.60;99.90
53599;DHT22;39485;45.702;11.364;2022-12-07T09:27:38;5.60;99.90
53599;DHT22;39485;45.702;11.364;2022-12-07T09:30:05;5.60;99.90
53599;DHT22;39485;45.702;11.364;2022-12-07T09:32:31;5.70;99.90
53599;DHT22;39485;45.702;11.364;2022-12-07T09:34:57;5.70;99.90
53599;DHT22;39485;45.702;11.364;2022-12-07T09:37:22;5.80;99.90
53599;DHT22;39485;45.702;11.364;2022-12-07T09:39:48;5.80;99.90
53599;DHT22;39485;45.702;11.364;2022-12-07T09:42:38;5.90;99.90
53599;DHT22;39485;45.702;11.364;2022-12-07T09:45:19;5.90;99.90
53599;DHT22;39485;45.702;11.364;2022-12-07T09:47:46;6.00;99.90
53599;DHT22;39485;45.702;11.364;2022-12-07T09:50:16;6.00;99.90
53599;DHT22;39485;45.702;11.364;2022-12-07T09:52:43;6.10;99.90
53599;DHT22;39485;45.702;11.364;2022-12-07T09:55:13;6.10;99.90
53599;DHT22;39485;45.702;11.364;2022-12-07T09:57:39;6.20;99.90
53599;DHT22;39485;45.702;11.364;2022-12-07T10:00:12;6.30;99.90
53599;DHT22;39485;45.702;11.364;2022-12-07T10:02:43;6.30;99.90
53599;DHT22;39485;45.702;11.364;2022-12-07T10:05:39;6.40;99.90
53599;DHT22;39485;45.702;11.364;2022-12-07T10:08:09;6.40;99.90
53599;DHT22;39485;45.702;11.364;2022-12-07T10:10:36;6.50;99.90
53599;DHT22;39485;45.702;11.364;2022-12-07T10:13:14;6.60;99.90
53599;DHT22;39485;45.702;11.364;2022-12-07T10:15:44;6.60;99.90
53599;DHT22;39485;45.702;11.364;2022-12-07T10:18:37;6.70;99.90
53599;DHT22;39485;45.702;11.364;2022-12-07T10:21:18;6.80;99.90
53599;DHT22;39485;45.702;11.364;2022-12-07T10:23:59;6.80;99.90
53599;DHT22;39485;45.702;11.364;2022-12-07T10:29:02;6.90;99.90
53599;DHT22;39485;45.702;11.364;2022-12-07T10:31:30;7.00;99.90
53599;DHT22;39485;45.702;11.364;2022-12-07T10:34:00;7.00;99.90
53599;DHT22;39485;45.702;11.364;2022-12-07T10:41:30;7.20;99.90
53599;DHT22;39485;45.702;11.364;2022-12-07T10:43:57;7.20;99.90
53599;DHT22;39485;45.702;11.364;2022-12-07T10:46:30;7.30;99.90
53599;DHT22;39485;45.702;11.364;2022-12-07T10:52:03;7.40;99.90
53599;DHT22;39485;45.702;11.364;2022-12-07T10:59:33;7.50;99.90
53599;DHT22;39485;45.702;11.364;2022-12-07T19:01:57;4.00;99.90
53599;DHT22;39485;45.702;11.364;2022-12-07T19:04:23;3.80;99.90
53599;DHT22;39485;45.702;11.364;2022-12-07T19:06:49;3.80;99.90
53599;DHT22;39485;45.702;11.364;2022-12-07T19:09:16;3.80;99.90
53599;DHT22;39485;45.702;11.364;2022-12-07T19:11:43;3.70;99.90
53599;DHT22;39485;45.702;11.364;2022-12-07T19:14:23;3.70;99.90
53599;DHT22;39485;45.702;11.364;2022-12-07T19:16:52;3.70;99.90
53599;DHT22;39485;45.702;11.364;2022-12-07T19:19:20;3.70;99.90
53599;DHT22;39485;45.702;11.364;2022-12-07T19:21:47;3.70;99.90
53599;DHT22;39485;45.702;11.364;2022-12-07T19:24:16;3.60;99.90
53599;DHT22;39485;45.702;11.364;2022-12-07T19:26:42;3.70;99.90
53599;DHT22;39485;45.702;11.364;2022-12-07T19:29:08;3.70;99.90
53599;DHT22;39485;45.702;11.364;2022-12-07T19:31:34;3.60;99.90
53599;DHT22;39485;45.702;11.364;2022-12-07T19:34:00;3.60;99.90
53599;DHT22;39485;45.702;11.364;2022-12-07T19:36:27;3.60;99.90
53599;DHT22;39485;45.702;11.364;2022-12-07T19:38:53;3.60;99.90
53599;DHT22;39485;45.702;11.364;2022-12-07T19:41:19;3.70;99.90
53599;DHT22;39485;45.702;11.364;2022-12-07T19:44:02;3.70;99.90
53599;DHT22;39485;45.702;11.364;2022-12-07T19:46:29;3.70;99.90
53599;DHT22;39485;45.702;11.364;2022-12-07T19:48:55;3.70;99.90
53599;DHT22;39485;45.702;11.364;2022-12-07T19:51:21;3.70;99.90
53599;DHT22;39485;45.702;11.364;2022-12-07T19:53:46;3.70;99.90
53599;DHT22;39485;45.702;11.364;2022-12-07T19:56:16;3.70;99.90
53599;DHT22;39485;45.702;11.364;2022-12-07T19:58:48;3.70;99.90
53599;DHT22;39485;45.702;11.364;2022-12-07T20:01:15;3.70;99.90
53599;DHT22;39485;45.702;11.364;2022-12-07T20:03:43;3.70;99.90
53599;DHT22;39485;45.702;11.364;2022-12-07T20:06:16;3.70;99.90
53599;DHT22;39485;45.702;11.364;2022-12-07T20:08:43;3.70;99.90
53599;DHT22;39485;45.702;11.364;2022-12-07T20:11:12;3.70;99.90
53599;DHT22;39485;45.702;11.364;2022-12-07T20:13:58;3.70;99.90
53599;DHT22;39485;45.702;11.364;2022-12-07T20:16:24;3.70;99.90
53599;DHT22;39485;45.702;11.364;2022-12-07T20:18:50;3.70;99.90
53599;DHT22;39485;45.702;11.364;2022-12-07T20:21:16;3.70;99.90
53599;DHT22;39485;45.702;11.364;2022-12-07T20:23:42;3.70;99.90
53599;DHT22;39485;45.702;11.364;2022-12-07T20:26:10;3.80;99.90
53599;DHT22;39485;45.702;11.364;2022-12-07T20:28:37;3.80;99.90
53599;DHT22;39485;45.702;11.364;2022-12-07T20:31:03;3.80;99.90
53599;DHT22;39485;45.702;11.364;2022-12-07T20:33:29;3.80;99.90
53599;DHT22;39485;45.702;11.364;2022-12-07T20:35:59;3.80;99.90
53599;DHT22;39485;45.702;11.364;2022-12-07T20:38:27;3.80;99.90
53599;DHT22;39485;45.702;11.364;2022-12-07T20:40:57;3.80;99.90
53599;DHT22;39485;45.702;11.364;2022-12-07T20:43:23;3.80;99.90
53599;DHT22;39485;45.702;11.364;2022-12-07T20:45:49;3.80;99.90
53599;DHT22;39485;45.702;11.364;2022-12-07T20:48:15;3.70;99.90
53599;DHT22;39485;45.702;11.364;2022-12-07T20:50:41;3.70;99.90
53599;DHT22;39485;45.702;11.364;2022-12-07T20:53:06;3.70;99.90
53599;DHT22;39485;45.702;11.364;2022-12-07T20:55:33;3.60;99.90
53599;DHT22;39485;45.702;11.364;2022-12-07T20:57:59;3.60;99.90
53599;DHT22;39485;45.702;11.364;2022-12-07T21:00:27;3.60;99.90
53599;DHT22;39485;45.702;11.364;2022-12-07T21:02:53;3.60;99.90
53599;DHT22;39485;45.702;11.364;2022-12-07T21:05:21;3.60;99.90
53599;DHT22;39485;45.702;11.364;2022-12-07T21:07:47;3.60;99.90
53599;DHT22;39485;45.702;11.364;2022-12-07T21:10:13;3.60;99.90
53599;DHT22;39485;45.702;11.364;2022-12-07T21:12:38;3.60;99.90
53599;DHT22;39485;45.702;11.364;2022-12-07T21:15:05;3.60;99.90
53599;DHT22;39485;45.702;11.364;2022-12-07T21:17:31;3.60;99.90
53599;DHT22;39485;45.702;11.364;2022-12-07T21:19:57;3.60;99.90
53599;DHT22;39485;45.702;11.364;2022-12-07T21:22:22;3.60;99.90
53599;DHT22;39485;45.702;11.364;2022-12-07T21:24:48;3.70;99.90
53599;DHT22;39485;45.702;11.364;2022-12-07T21:27:14;3.70;99.90
53599;DHT22;39485;45.702;11.364;2022-12-07T21:29:39;3.70;99.90
53599;DHT22;39485;45.702;11.364;2022-12-07T21:32:05;3.70;99.90
53599;DHT22;39485;45.702;11.364;2022-12-07T21:34:31;3.60;99.90
53599;DHT22;39485;45.702;11.364;2022-12-07T21:36:57;3.60;99.90
53599;DHT22;39485;45.702;11.364;2022-12-07T21:39:22;3.60;99.90
53599;DHT22;39485;45.702;11.364;2022-12-07T21:41:48;3.50;99.90
53599;DHT22;39485;45.702;11.364;2022-12-07T21:44:14;3.50;99.90
53599;DHT22;39485;45.702;11.364;2022-12-07T21:46:39;3.50;99.90
53599;DHT22;39485;45.702;11.364;2022-12-07T21:49:10;3.50;99.90
53599;DHT22;39485;45.702;11.364;2022-12-07T21:51:37;3.50;99.90
53599;DHT22;39485;45.702;11.364;2022-12-07T21:54:04;3.50;99.90
53599;DHT22;39485;45.702;11.364;2022-12-07T21:56:35;3.40;99.90
53599;DHT22;39485;45.702;11.364;2022-12-07T21:59:04;3.40;99.90
53599;DHT22;39485;45.702;11.364;2022-12-07T22:01:34;3.40;99.90
53599;DHT22;39485;45.702;11.364;2022-12-07T22:04:04;3.40;99.90
53599;DHT22;39485;45.702;11.364;2022-12-07T22:06:31;3.40;99.90
53599;DHT22;39485;45.702;11.364;2022-12-07T22:08:57;3.40;99.90
53599;DHT22;39485;45.702;11.364;2022-12-07T22:11:23;3.40;99.90
53599;DHT22;39485;45.702;11.364;2022-12-07T22:13:48;3.40;99.90
53599;DHT22;39485;45.702;11.364;2022-12-07T22:16:33;3.40;99.90
53599;DHT22;39485;45.702;11.364;2022-12-07T22:18:59;3.40;99.90
53599;DHT22;39485;45.702;11.364;2022-12-07T22:21:25;3.40;99.90
53599;DHT22;39485;45.702;11.364;2022-12-07T22:23:51;3.40;99.90
53599;DHT22;39485;45.702;11.364;2022-12-07T22:26:18;3.40;99.90
53599;DHT22;39485;45.702;11.364;2022-12-07T22:28:46;3.40;99.90
53599;DHT22;39485;45.702;11.364;2022-12-07T22:31:14;3.40;99.90
53599;DHT22;39485;45.702;11.364;2022-12-07T22:33:40;3.40;99.90
53599;DHT22;39485;45.702;11.364;2022-12-07T22:36:07;3.30;99.90
53599;DHT22;39485;45.702;11.364;2022-12-07T22:38:34;3.40;99.90
53599;DHT22;39485;45.702;11.364;2022-12-07T22:41:11;3.40;99.90
53599;DHT22;39485;45.702;11.364;2022-12-07T22:43:37;3.40;99.90
53599;DHT22;39485;45.702;11.364;2022-12-07T22:46:02;3.40;99.90
53599;DHT22;39485;45.702;11.364;2022-12-07T22:48:28;3.40;99.90
53599;DHT22;39485;45.702;11.364;2022-12-07T22:50:54;3.40;99.90
53599;DHT22;39485;45.702;11.364;2022-12-07T22:53:23;3.40;99.90
53599;DHT22;39485;45.702;11.364;2022-12-07T22:55:50;3.40;99.90
53599;DHT22;39485;45.702;11.364;2022-12-07T22:58:16;3.40;99.90
53599;DHT22;39485;45.702;11.364;2022-12-07T23:00:42;3.40;99.90
53599;DHT22;39485;45.702;11.364;2022-12-07T23:03:09;3.40;99.90
53599;DHT22;39485;45.702;11.364;2022-12-07T23:05:43;3.30;99.90
53599;DHT22;39485;45.702;11.364;2022-12-07T23:08:10;3.30;99.90
53599;DHT22;39485;45.702;11.364;2022-12-07T23:10:40;3.30;99.90
53599;DHT22;39485;45.702;11.364;2022-12-07T23:13:06;3.30;99.90
53599;DHT22;39485;45.702;11.364;2022-12-07T23:15:50;3.30;99.90
53599;DHT22;39485;45.702;11.364;2022-12-07T23:18:16;3.30;99.90
53599;DHT22;39485;45.702;11.364;2022-12-07T23:20:41;3.30;99.90
53599;DHT22;39485;45.702;11.364;2022-12-07T23:23:07;3.30;99.90
53599;DHT22;39485;45.702;11.364;2022-12-07T23:25:33;3.30;99.90
53599;DHT22;39485;45.702;11.364;2022-12-07T23:27:58;3.30;99.90
53599;DHT22;39485;45.702;11.364;2022-12-07T23:30:24;3.30;99.90
53599;DHT22;39485;45.702;11.364;2022-12-07T23:32:49;3.20;99.90
53599;DHT22;39485;45.702;11.364;2022-12-07T23:35:15;3.20;99.90
53599;DHT22;39485;45.702;11.364;2022-12-07T23:37:41;3.20;99.90
53599;DHT22;39485;45.702;11.364;2022-12-07T23:40:07;3.20;99.90
53599;DHT22;39485;45.702;11.364;2022-12-07T23:42:33;3.20;99.90
53599;DHT22;39485;45.702;11.364;2022-12-07T23:44:58;3.20;99.90
53599;DHT22;39485;45.702;11.364;2022-12-07T23:47:24;3.20;99.90
53599;DHT22;39485;45.702;11.364;2022-12-07T23:49:50;3.20;99.90
53599;DHT22;39485;45.702;11.364;2022-12-07T23:52:15;3.20;99.90
53599;DHT22;39485;45.702;11.364;2022-12-07T23:54:41;3.10;99.90
53599;DHT22;39485;45.702;11.364;2022-12-07T23:57:07;3.10;99.90
53599;DHT22;39485;45.702;11.364;2022-12-07T23:59:32;3.10;99.90
